sensor_id;sensor_type;location;lat;lon;timestamp;P1;durP1;ratioP1;P2;durP2;ratioP2
41167;SDS011;26906;45.658;9.272;2023-08-01T05:35:51;3.70;;;3.17;;
41167;SDS011;26906;45.658;9.272;2023-08-01T05:38:18;5.15;;;3.38;;
41167;SDS011;26906;45.658;9.272;2023-08-01T05:40:45;3.80;;;3.40;;
41167;SDS011;26906;45.658;9.272;2023-08-01T05:43:11;6.53;;;2.97;;
41167;SDS011;26906;45.658;9.272;2023-08-01T05:45:36;3.70;;;3.40;;
41167;SDS011;26906;45.658;9.272;2023-08-01T05:48:02;3.80;;;3.50;;
41167;SDS011;26906;45.658;9.272;2023-08-01T05:50:28;6.03;;;3.40;;
41167;SDS011;26906;45.658;9.272;2023-08-01T05:52:54;4.03;;;3.45;;
41167;SDS011;26906;45.658;9.272;2023-08-01T05:55:19;4.30;;;3.90;;
41167;SDS011;26906;45.658;9.272;2023-08-01T05:57:46;5.85;;;3.53;;
41167;SDS011;26906;45.658;9.272;2023-08-01T06:00:14;4.07;;;3.67;;
41167;SDS011;26906;45.658;9.272;2023-08-01T06:02:40;3.72;;;3.42;;
41167;SDS011;26906;45.658;9.272;2023-08-01T06:05:06;5.53;;;3.70;;
41167;SDS011;26906;45.658;9.272;2023-08-01T06:07:32;4.38;;;3.97;;
41167;SDS011;26906;45.658;9.272;2023-08-01T06:09:57;5.03;;;4.10;;
41167;SDS011;26906;45.658;9.272;2023-08-01T06:12:23;6.90;;;4.40;;
41167;SDS011;26906;45.658;9.272;2023-08-01T06:14:49;5.85;;;4.03;;
41167;SDS011;26906;45.658;9.272;2023-08-01T06:17:14;10.45;;;4.10;;
41167;SDS011;26906;45.658;9.272;2023-08-01T06:19:40;6.03;;;3.70;;
41167;SDS011;26906;45.658;9.272;2023-08-01T06:22:06;7.18;;;4.05;;
41167;SDS011;26906;45.658;9.272;2023-08-01T06:24:33;9.18;;;4.15;;
41167;SDS011;26906;45.658;9.272;2023-08-01T06:26:59;7.38;;;4.30;;
41167;SDS011;26906;45.658;9.272;2023-08-01T06:29:24;7.60;;;4.32;;
41167;SDS011;26906;45.658;9.272;2023-08-01T06:31:51;7.78;;;5.63;;
41167;SDS011;26906;45.658;9.272;2023-08-01T06:34:17;6.78;;;5.25;;
41167;SDS011;26906;45.658;9.272;2023-08-01T06:36:42;7.05;;;4.88;;
41167;SDS011;26906;45.658;9.272;2023-08-01T06:39:08;5.90;;;5.22;;
41167;SDS011;26906;45.658;9.272;2023-08-01T06:41:34;7.43;;;5.22;;
41167;SDS011;26906;45.658;9.272;2023-08-01T06:44:00;6.53;;;5.65;;
41167;SDS011;26906;45.658;9.272;2023-08-01T06:46:26;8.90;;;5.70;;
41167;SDS011;26906;45.658;9.272;2023-08-01T06:48:51;7.90;;;5.82;;
41167;SDS011;26906;45.658;9.272;2023-08-01T06:51:17;10.80;;;5.68;;
41167;SDS011;26906;45.658;9.272;2023-08-01T06:53:43;7.65;;;6.03;;
41167;SDS011;26906;45.658;9.272;2023-08-01T06:56:09;10.75;;;6.07;;
41167;SDS011;26906;45.658;9.272;2023-08-01T06:58:35;6.55;;;5.72;;
41167;SDS011;26906;45.658;9.272;2023-08-01T07:01:00;9.30;;;6.22;;
41167;SDS011;26906;45.658;9.272;2023-08-01T07:03:26;8.00;;;5.78;;
41167;SDS011;26906;45.658;9.272;2023-08-01T07:05:52;5.85;;;4.97;;
41167;SDS011;26906;45.658;9.272;2023-08-01T07:08:17;5.80;;;4.18;;
41167;SDS011;26906;45.658;9.272;2023-08-01T07:10:43;7.72;;;4.88;;
41167;SDS011;26906;45.658;9.272;2023-08-01T07:13:11;6.10;;;5.00;;
41167;SDS011;26906;45.658;9.272;2023-08-01T07:15:37;6.78;;;4.57;;
41167;SDS011;26906;45.658;9.272;2023-08-01T07:18:02;7.97;;;5.40;;
41167;SDS011;26906;45.658;9.272;2023-08-01T07:20:28;6.63;;;5.25;;
41167;SDS011;26906;45.658;9.272;2023-08-01T07:22:54;6.07;;;4.88;;
41167;SDS011;26906;45.658;9.272;2023-08-01T07:25:19;14.32;;;5.15;;
41167;SDS011;26906;45.658;9.272;2023-08-01T07:27:45;8.30;;;4.82;;
41167;SDS011;26906;45.658;9.272;2023-08-01T07:30:11;8.15;;;4.60;;
41167;SDS011;26906;45.658;9.272;2023-08-01T07:32:37;6.22;;;4.50;;
41167;SDS011;26906;45.658;9.272;2023-08-01T07:35:04;8.77;;;3.88;;
41167;SDS011;26906;45.658;9.272;2023-08-01T07:37:31;6.60;;;3.90;;
41167;SDS011;26906;45.658;9.272;2023-08-01T07:39:58;6.03;;;3.38;;
41167;SDS011;26906;45.658;9.272;2023-08-01T07:42:24;7.20;;;3.42;;
41167;SDS011;26906;45.658;9.272;2023-08-01T07:44:49;7.00;;;3.80;;
41167;SDS011;26906;45.658;9.272;2023-08-01T07:47:15;4.30;;;3.53;;
41167;SDS011;26906;45.658;9.272;2023-08-01T07:49:41;3.13;;;2.72;;
41167;SDS011;26906;45.658;9.272;2023-08-01T07:52:06;4.68;;;2.95;;
41167;SDS011;26906;45.658;9.272;2023-08-01T07:54:32;4.03;;;2.30;;
41167;SDS011;26906;45.658;9.272;2023-08-01T07:56:58;5.35;;;2.60;;
41167;SDS011;26906;45.658;9.272;2023-08-01T07:59:24;2.22;;;2.03;;
41167;SDS011;26906;45.658;9.272;2023-08-01T08:01:49;4.40;;;2.55;;
41167;SDS011;26906;45.658;9.272;2023-08-01T08:04:15;3.60;;;2.20;;
41167;SDS011;26906;45.658;9.272;2023-08-01T08:06:42;2.70;;;2.00;;
41167;SDS011;26906;45.658;9.272;2023-08-01T08:09:08;3.95;;;2.40;;
41167;SDS011;26906;45.658;9.272;2023-08-01T08:11:33;5.15;;;2.88;;
41167;SDS011;26906;45.658;9.272;2023-08-01T08:13:59;3.85;;;2.40;;
41167;SDS011;26906;45.658;9.272;2023-08-01T08:16:25;2.83;;;2.28;;
41167;SDS011;26906;45.658;9.272;2023-08-01T08:18:51;4.22;;;2.90;;
41167;SDS011;26906;45.658;9.272;2023-08-01T08:21:16;7.78;;;2.78;;
41167;SDS011;26906;45.658;9.272;2023-08-01T08:23:42;2.80;;;2.22;;
41167;SDS011;26906;45.658;9.272;2023-08-01T08:26:08;6.28;;;2.83;;
41167;SDS011;26906;45.658;9.272;2023-08-01T08:28:34;4.57;;;3.65;;
41167;SDS011;26906;45.658;9.272;2023-08-01T08:31:00;4.20;;;3.53;;
41167;SDS011;26906;45.658;9.272;2023-08-01T08:33:29;4.20;;;2.80;;
41167;SDS011;26906;45.658;9.272;2023-08-01T08:35:55;5.28;;;3.40;;
41167;SDS011;26906;45.658;9.272;2023-08-01T08:38:20;4.85;;;3.88;;
41167;SDS011;26906;45.658;9.272;2023-08-01T08:43:26;3.92;;;3.20;;
41167;SDS011;26906;45.658;9.272;2023-08-01T08:45:53;5.20;;;3.33;;
41167;SDS011;26906;45.658;9.272;2023-08-01T08:48:22;5.20;;;3.50;;
41167;SDS011;26906;45.658;9.272;2023-08-01T08:50:48;4.82;;;3.50;;
41167;SDS011;26906;45.658;9.272;2023-08-01T08:53:15;3.30;;;3.00;;
41167;SDS011;26906;45.658;9.272;2023-08-01T08:55:42;5.47;;;3.67;;
41167;SDS011;26906;45.658;9.272;2023-08-01T08:58:08;7.07;;;3.53;;
41167;SDS011;26906;45.658;9.272;2023-08-01T09:00:37;4.78;;;3.42;;
41167;SDS011;26906;45.658;9.272;2023-08-01T09:03:03;4.95;;;4.28;;
41167;SDS011;26906;45.658;9.272;2023-08-01T09:05:31;5.22;;;3.67;;
41167;SDS011;26906;45.658;9.272;2023-08-01T09:08:15;4.70;;;3.45;;
41167;SDS011;26906;45.658;9.272;2023-08-01T09:10:45;3.85;;;3.42;;
41167;SDS011;26906;45.658;9.272;2023-08-01T09:13:12;3.58;;;2.95;;
41167;SDS011;26906;45.658;9.272;2023-08-01T09:15:37;7.22;;;3.20;;
41167;SDS011;26906;45.658;9.272;2023-08-01T09:18:07;4.50;;;3.63;;
41167;SDS011;26906;45.658;9.272;2023-08-01T09:20:39;5.57;;;3.58;;
41167;SDS011;26906;45.658;9.272;2023-08-01T09:23:09;4.20;;;3.47;;
41167;SDS011;26906;45.658;9.272;2023-08-01T09:25:36;4.45;;;3.45;;
41167;SDS011;26906;45.658;9.272;2023-08-01T09:28:02;3.90;;;3.50;;
41167;SDS011;26906;45.658;9.272;2023-08-01T09:30:28;5.97;;;3.88;;
41167;SDS011;26906;45.658;9.272;2023-08-01T09:32:54;4.07;;;3.30;;
41167;SDS011;26906;45.658;9.272;2023-08-01T09:35:21;4.05;;;3.33;;
41167;SDS011;26906;45.658;9.272;2023-08-01T09:37:48;4.32;;;3.50;;
41167;SDS011;26906;45.658;9.272;2023-08-01T09:40:14;5.88;;;3.78;;
41167;SDS011;26906;45.658;9.272;2023-08-01T09:42:40;4.50;;;3.58;;
41167;SDS011;26906;45.658;9.272;2023-08-01T09:45:16;8.82;;;3.90;;
41167;SDS011;26906;45.658;9.272;2023-08-01T09:47:43;6.82;;;4.13;;
41167;SDS011;26906;45.658;9.272;2023-08-01T09:50:10;6.97;;;4.10;;
41167;SDS011;26906;45.658;9.272;2023-08-01T09:52:38;5.43;;;3.75;;
41167;SDS011;26906;45.658;9.272;2023-08-01T09:55:04;4.85;;;3.58;;
41167;SDS011;26906;45.658;9.272;2023-08-01T09:57:30;7.22;;;3.75;;
41167;SDS011;26906;45.658;9.272;2023-08-01T09:59:57;4.65;;;2.92;;
41167;SDS011;26906;45.658;9.272;2023-08-01T10:02:24;7.18;;;4.43;;
41167;SDS011;26906;45.658;9.272;2023-08-01T10:04:57;7.80;;;4.97;;
41167;SDS011;26906;45.658;9.272;2023-08-01T10:07:25;7.85;;;5.28;;
41167;SDS011;26906;45.658;9.272;2023-08-01T10:09:54;5.63;;;4.68;;
41167;SDS011;26906;45.658;9.272;2023-08-01T10:12:23;7.35;;;4.45;;
41167;SDS011;26906;45.658;9.272;2023-08-01T10:14:52;8.77;;;4.88;;
41167;SDS011;26906;45.658;9.272;2023-08-01T10:17:19;7.60;;;4.65;;
41167;SDS011;26906;45.658;9.272;2023-08-01T10:19:46;8.55;;;5.20;;
41167;SDS011;26906;45.658;9.272;2023-08-01T10:22:14;9.80;;;5.68;;
41167;SDS011;26906;45.658;9.272;2023-08-01T10:24:40;8.85;;;5.00;;
41167;SDS011;26906;45.658;9.272;2023-08-01T10:27:11;7.30;;;4.82;;
41167;SDS011;26906;45.658;9.272;2023-08-01T10:29:43;7.07;;;5.28;;
41167;SDS011;26906;45.658;9.272;2023-08-01T10:32:09;7.13;;;5.30;;
41167;SDS011;26906;45.658;9.272;2023-08-01T10:34:35;6.60;;;4.72;;
41167;SDS011;26906;45.658;9.272;2023-08-01T10:37:01;8.50;;;4.82;;
41167;SDS011;26906;45.658;9.272;2023-08-01T10:39:27;6.22;;;4.63;;
41167;SDS011;26906;45.658;9.272;2023-08-01T10:41:57;4.85;;;4.10;;
41167;SDS011;26906;45.658;9.272;2023-08-01T10:44:28;7.07;;;4.90;;
41167;SDS011;26906;45.658;9.272;2023-08-01T10:52:03;6.25;;;4.68;;
41167;SDS011;26906;45.658;9.272;2023-08-01T10:54:56;7.00;;;5.70;;
41167;SDS011;26906;45.658;9.272;2023-08-01T10:57:29;7.68;;;5.32;;
41167;SDS011;26906;45.658;9.272;2023-08-01T10:59:56;5.32;;;4.60;;
41167;SDS011;26906;45.658;9.272;2023-08-01T11:02:26;5.30;;;4.30;;
41167;SDS011;26906;45.658;9.272;2023-08-01T11:04:59;5.93;;;4.55;;
41167;SDS011;26906;45.658;9.272;2023-08-01T11:07:28;10.57;;;5.28;;
41167;SDS011;26906;45.658;9.272;2023-08-01T11:10:05;7.53;;;4.95;;
41167;SDS011;26906;45.658;9.272;2023-08-01T11:12:35;7.45;;;4.07;;
41167;SDS011;26906;45.658;9.272;2023-08-01T11:15:02;5.85;;;4.13;;
41167;SDS011;26906;45.658;9.272;2023-08-01T11:17:28;6.28;;;4.30;;
41167;SDS011;26906;45.658;9.272;2023-08-01T11:20:05;6.05;;;4.15;;
41167;SDS011;26906;45.658;9.272;2023-08-01T11:22:35;4.90;;;4.32;;
41167;SDS011;26906;45.658;9.272;2023-08-01T11:25:02;7.18;;;5.13;;
41167;SDS011;26906;45.658;9.272;2023-08-01T11:27:29;6.30;;;5.40;;
41167;SDS011;26906;45.658;9.272;2023-08-01T11:29:55;5.82;;;4.88;;
41167;SDS011;26906;45.658;9.272;2023-08-01T11:32:21;7.00;;;4.82;;
41167;SDS011;26906;45.658;9.272;2023-08-01T11:34:57;8.05;;;5.10;;
41167;SDS011;26906;45.658;9.272;2023-08-01T11:37:25;13.65;;;8.38;;
41167;SDS011;26906;45.658;9.272;2023-08-01T11:39:52;9.15;;;5.45;;
41167;SDS011;26906;45.658;9.272;2023-08-01T11:42:18;6.40;;;4.65;;
41167;SDS011;26906;45.658;9.272;2023-08-01T11:44:44;8.07;;;4.78;;
41167;SDS011;26906;45.658;9.272;2023-08-01T11:47:13;7.25;;;4.78;;
41167;SDS011;26906;45.658;9.272;2023-08-01T11:49:45;5.90;;;5.00;;
41167;SDS011;26906;45.658;9.272;2023-08-01T11:52:24;9.90;;;5.30;;
41167;SDS011;26906;45.658;9.272;2023-08-01T11:54:53;8.35;;;5.00;;
41167;SDS011;26906;45.658;9.272;2023-08-01T11:57:22;7.40;;;5.47;;
41167;SDS011;26906;45.658;9.272;2023-08-01T11:59:48;6.82;;;4.88;;
41167;SDS011;26906;45.658;9.272;2023-08-01T12:02:22;7.38;;;4.40;;
41167;SDS011;26906;45.658;9.272;2023-08-01T12:04:51;8.75;;;4.68;;
41167;SDS011;26906;45.658;9.272;2023-08-01T12:07:18;6.65;;;4.43;;
41167;SDS011;26906;45.658;9.272;2023-08-01T12:10:17;9.02;;;5.00;;
41167;SDS011;26906;45.658;9.272;2023-08-01T12:12:42;8.40;;;5.35;;
41167;SDS011;26906;45.658;9.272;2023-08-01T12:15:09;10.30;;;4.85;;
41167;SDS011;26906;45.658;9.272;2023-08-01T12:17:35;7.78;;;4.50;;
41167;SDS011;26906;45.658;9.272;2023-08-01T12:20:01;9.93;;;4.50;;
41167;SDS011;26906;45.658;9.272;2023-08-01T12:22:26;9.05;;;4.57;;
41167;SDS011;26906;45.658;9.272;2023-08-01T12:24:54;8.98;;;4.57;;
41167;SDS011;26906;45.658;9.272;2023-08-01T12:27:20;7.63;;;4.70;;
41167;SDS011;26906;45.658;9.272;2023-08-01T12:29:46;5.65;;;4.07;;
41167;SDS011;26906;45.658;9.272;2023-08-01T12:32:11;10.63;;;4.80;;
41167;SDS011;26906;45.658;9.272;2023-08-01T12:34:39;8.63;;;4.60;;
41167;SDS011;26906;45.658;9.272;2023-08-01T12:37:04;9.38;;;4.80;;
41167;SDS011;26906;45.658;9.272;2023-08-01T12:39:30;6.88;;;4.85;;
41167;SDS011;26906;45.658;9.272;2023-08-01T12:41:56;12.65;;;4.90;;
41167;SDS011;26906;45.658;9.272;2023-08-01T12:44:24;6.82;;;4.35;;
41167;SDS011;26906;45.658;9.272;2023-08-01T12:46:50;8.70;;;4.82;;
41167;SDS011;26906;45.658;9.272;2023-08-01T12:49:17;4.45;;;3.95;;
41167;SDS011;26906;45.658;9.272;2023-08-01T12:51:43;8.52;;;4.57;;
41167;SDS011;26906;45.658;9.272;2023-08-01T12:54:10;7.70;;;4.88;;
41167;SDS011;26906;45.658;9.272;2023-08-01T12:56:37;7.32;;;4.38;;
41167;SDS011;26906;45.658;9.272;2023-08-01T12:59:02;8.05;;;4.45;;
41167;SDS011;26906;45.658;9.272;2023-08-01T13:01:29;7.78;;;4.60;;
41167;SDS011;26906;45.658;9.272;2023-08-01T13:03:54;7.90;;;4.70;;
41167;SDS011;26906;45.658;9.272;2023-08-01T13:06:20;8.13;;;4.25;;
41167;SDS011;26906;45.658;9.272;2023-08-01T13:08:45;9.57;;;4.60;;
41167;SDS011;26906;45.658;9.272;2023-08-01T13:11:12;8.13;;;4.40;;
41167;SDS011;26906;45.658;9.272;2023-08-01T13:13:41;6.70;;;4.28;;
41167;SDS011;26906;45.658;9.272;2023-08-01T13:16:08;12.10;;;4.68;;
41167;SDS011;26906;45.658;9.272;2023-08-01T13:18:34;7.63;;;4.47;;
41167;SDS011;26906;45.658;9.272;2023-08-01T13:21:00;8.90;;;4.38;;
41167;SDS011;26906;45.658;9.272;2023-08-01T13:23:26;10.77;;;4.88;;
41167;SDS011;26906;45.658;9.272;2023-08-01T13:25:51;10.07;;;5.03;;
41167;SDS011;26906;45.658;9.272;2023-08-01T13:28:17;14.90;;;4.70;;
41167;SDS011;26906;45.658;9.272;2023-08-01T13:30:43;10.48;;;5.07;;
41167;SDS011;26906;45.658;9.272;2023-08-01T13:33:08;10.90;;;4.88;;
41167;SDS011;26906;45.658;9.272;2023-08-01T13:35:34;9.13;;;5.00;;
41167;SDS011;26906;45.658;9.272;2023-08-01T13:38:00;9.02;;;4.85;;
41167;SDS011;26906;45.658;9.272;2023-08-01T13:40:25;12.70;;;5.07;;
41167;SDS011;26906;45.658;9.272;2023-08-01T13:42:51;12.70;;;5.32;;
41167;SDS011;26906;45.658;9.272;2023-08-01T13:45:17;7.72;;;4.72;;
41167;SDS011;26906;45.658;9.272;2023-08-01T13:47:42;8.82;;;5.10;;
41167;SDS011;26906;45.658;9.272;2023-08-01T13:50:09;8.00;;;5.20;;
41167;SDS011;26906;45.658;9.272;2023-08-01T13:52:36;9.80;;;4.82;;
41167;SDS011;26906;45.658;9.272;2023-08-01T13:55:02;10.07;;;5.28;;
41167;SDS011;26906;45.658;9.272;2023-08-01T13:57:29;12.27;;;5.40;;
41167;SDS011;26906;45.658;9.272;2023-08-01T13:59:56;8.80;;;5.03;;
41167;SDS011;26906;45.658;9.272;2023-08-01T14:02:21;7.22;;;4.97;;
41167;SDS011;26906;45.658;9.272;2023-08-01T14:04:50;12.07;;;4.85;;
41167;SDS011;26906;45.658;9.272;2023-08-01T14:07:18;11.65;;;5.38;;
41167;SDS011;26906;45.658;9.272;2023-08-01T14:09:44;9.18;;;5.10;;
41167;SDS011;26906;45.658;9.272;2023-08-01T14:12:09;11.32;;;5.45;;
41167;SDS011;26906;45.658;9.272;2023-08-01T14:14:35;9.55;;;5.75;;
41167;SDS011;26906;45.658;9.272;2023-08-01T14:17:01;8.68;;;5.22;;
41167;SDS011;26906;45.658;9.272;2023-08-01T14:19:26;10.55;;;5.50;;
41167;SDS011;26906;45.658;9.272;2023-08-01T14:21:55;6.20;;;4.60;;
41167;SDS011;26906;45.658;9.272;2023-08-01T14:24:21;9.73;;;5.65;;
41167;SDS011;26906;45.658;9.272;2023-08-01T14:26:47;9.95;;;5.95;;
41167;SDS011;26906;45.658;9.272;2023-08-01T14:29:13;8.15;;;5.22;;
41167;SDS011;26906;45.658;9.272;2023-08-01T14:31:39;8.35;;;5.60;;
41167;SDS011;26906;45.658;9.272;2023-08-01T14:34:04;9.75;;;5.35;;
41167;SDS011;26906;45.658;9.272;2023-08-01T14:36:30;10.00;;;5.60;;
41167;SDS011;26906;45.658;9.272;2023-08-01T14:38:56;10.35;;;5.45;;
41167;SDS011;26906;45.658;9.272;2023-08-01T14:41:22;10.02;;;5.47;;
41167;SDS011;26906;45.658;9.272;2023-08-01T14:43:48;11.70;;;5.18;;
41167;SDS011;26906;45.658;9.272;2023-08-01T14:46:13;9.52;;;5.40;;
41167;SDS011;26906;45.658;9.272;2023-08-01T14:48:39;9.40;;;5.00;;
41167;SDS011;26906;45.658;9.272;2023-08-01T14:51:06;9.48;;;4.97;;
41167;SDS011;26906;45.658;9.272;2023-08-01T14:53:32;10.07;;;5.22;;
41167;SDS011;26906;45.658;9.272;2023-08-01T14:55:58;5.65;;;4.93;;
41167;SDS011;26906;45.658;9.272;2023-08-01T14:58:25;7.60;;;4.68;;
41167;SDS011;26906;45.658;9.272;2023-08-01T15:00:51;8.90;;;5.13;;
41167;SDS011;26906;45.658;9.272;2023-08-01T15:03:16;10.20;;;5.28;;
41167;SDS011;26906;45.658;9.272;2023-08-01T15:05:43;9.07;;;4.90;;
41167;SDS011;26906;45.658;9.272;2023-08-01T15:08:09;7.72;;;4.80;;
41167;SDS011;26906;45.658;9.272;2023-08-01T15:10:36;10.38;;;5.50;;
41167;SDS011;26906;45.658;9.272;2023-08-01T15:13:02;11.32;;;4.80;;
41167;SDS011;26906;45.658;9.272;2023-08-01T15:15:27;9.93;;;5.13;;
41167;SDS011;26906;45.658;9.272;2023-08-01T15:17:53;8.32;;;5.40;;
41167;SDS011;26906;45.658;9.272;2023-08-01T15:20:19;8.02;;;4.97;;
41167;SDS011;26906;45.658;9.272;2023-08-01T15:22:44;9.00;;;5.32;;
41167;SDS011;26906;45.658;9.272;2023-08-01T15:25:10;10.75;;;5.40;;
41167;SDS011;26906;45.658;9.272;2023-08-01T15:27:36;8.20;;;4.78;;
41167;SDS011;26906;45.658;9.272;2023-08-01T15:30:01;7.30;;;4.95;;
41167;SDS011;26906;45.658;9.272;2023-08-01T15:32:27;12.23;;;5.03;;
41167;SDS011;26906;45.658;9.272;2023-08-01T15:34:54;11.73;;;5.90;;
41167;SDS011;26906;45.658;9.272;2023-08-01T15:37:20;9.80;;;5.47;;
41167;SDS011;26906;45.658;9.272;2023-08-01T15:39:45;11.23;;;5.47;;
41167;SDS011;26906;45.658;9.272;2023-08-01T15:42:11;9.48;;;5.68;;
41167;SDS011;26906;45.658;9.272;2023-08-01T15:44:39;9.60;;;5.32;;
41167;SDS011;26906;45.658;9.272;2023-08-01T15:47:05;7.40;;;5.60;;
41167;SDS011;26906;45.658;9.272;2023-08-01T15:49:31;8.77;;;5.25;;
41167;SDS011;26906;45.658;9.272;2023-08-01T15:51:56;7.05;;;5.38;;
41167;SDS011;26906;45.658;9.272;2023-08-01T15:54:22;8.88;;;5.70;;
41167;SDS011;26906;45.658;9.272;2023-08-01T15:56:48;8.57;;;4.90;;
41167;SDS011;26906;45.658;9.272;2023-08-01T15:59:13;9.55;;;5.10;;
41167;SDS011;26906;45.658;9.272;2023-08-01T16:01:39;7.60;;;5.28;;
41167;SDS011;26906;45.658;9.272;2023-08-01T16:04:05;8.38;;;5.22;;
41167;SDS011;26906;45.658;9.272;2023-08-01T16:06:31;7.95;;;5.80;;
41167;SDS011;26906;45.658;9.272;2023-08-01T16:08:56;9.43;;;5.53;;
41167;SDS011;26906;45.658;9.272;2023-08-01T16:11:22;6.88;;;5.18;;
41167;SDS011;26906;45.658;9.272;2023-08-01T16:13:47;10.95;;;5.40;;
41167;SDS011;26906;45.658;9.272;2023-08-01T16:16:13;12.70;;;5.95;;
41167;SDS011;26906;45.658;9.272;2023-08-01T16:18:39;7.82;;;5.30;;
41167;SDS011;26906;45.658;9.272;2023-08-01T16:21:04;9.25;;;5.55;;
41167;SDS011;26906;45.658;9.272;2023-08-01T16:23:30;9.50;;;5.20;;
41167;SDS011;26906;45.658;9.272;2023-08-01T16:25:57;9.18;;;5.35;;
41167;SDS011;26906;45.658;9.272;2023-08-01T16:28:22;9.43;;;5.32;;
41167;SDS011;26906;45.658;9.272;2023-08-01T16:30:51;9.75;;;5.95;;
41167;SDS011;26906;45.658;9.272;2023-08-01T16:33:17;7.78;;;5.68;;
41167;SDS011;26906;45.658;9.272;2023-08-01T16:35:43;10.25;;;5.68;;
41167;SDS011;26906;45.658;9.272;2023-08-01T16:38:08;9.68;;;5.75;;
41167;SDS011;26906;45.658;9.272;2023-08-01T16:40:34;8.48;;;5.65;;
41167;SDS011;26906;45.658;9.272;2023-08-01T16:43:02;10.30;;;5.03;;
41167;SDS011;26906;45.658;9.272;2023-08-01T16:45:30;8.60;;;5.72;;
41167;SDS011;26906;45.658;9.272;2023-08-01T16:47:57;8.38;;;5.20;;
41167;SDS011;26906;45.658;9.272;2023-08-01T16:50:22;9.15;;;5.35;;
41167;SDS011;26906;45.658;9.272;2023-08-01T16:52:48;10.52;;;5.47;;
41167;SDS011;26906;45.658;9.272;2023-08-01T16:55:14;9.15;;;5.28;;
41167;SDS011;26906;45.658;9.272;2023-08-01T16:57:41;10.80;;;5.20;;
41167;SDS011;26906;45.658;9.272;2023-08-01T17:00:08;7.93;;;4.75;;
41167;SDS011;26906;45.658;9.272;2023-08-01T17:02:35;8.38;;;5.10;;
41167;SDS011;26906;45.658;9.272;2023-08-01T17:05:01;11.10;;;5.38;;
41167;SDS011;26906;45.658;9.272;2023-08-01T17:07:27;8.57;;;5.70;;
41167;SDS011;26906;45.658;9.272;2023-08-01T17:09:54;8.57;;;5.68;;
41167;SDS011;26906;45.658;9.272;2023-08-01T17:12:21;8.25;;;5.15;;
41167;SDS011;26906;45.658;9.272;2023-08-01T17:14:47;7.03;;;4.75;;
41167;SDS011;26906;45.658;9.272;2023-08-01T17:17:12;13.23;;;5.68;;
41167;SDS011;26906;45.658;9.272;2023-08-01T17:19:38;6.65;;;5.15;;
41167;SDS011;26906;45.658;9.272;2023-08-01T17:22:04;10.18;;;4.75;;
41167;SDS011;26906;45.658;9.272;2023-08-01T17:24:30;6.95;;;4.80;;
41167;SDS011;26906;45.658;9.272;2023-08-01T17:26:56;13.18;;;5.47;;
41167;SDS011;26906;45.658;9.272;2023-08-01T17:29:21;9.20;;;5.20;;
41167;SDS011;26906;45.658;9.272;2023-08-01T17:31:47;9.75;;;5.35;;
41167;SDS011;26906;45.658;9.272;2023-08-01T17:34:13;7.90;;;5.05;;
41167;SDS011;26906;45.658;9.272;2023-08-01T17:36:39;9.40;;;5.45;;
41167;SDS011;26906;45.658;9.272;2023-08-01T17:39:05;8.43;;;5.35;;
41167;SDS011;26906;45.658;9.272;2023-08-01T17:41:32;7.47;;;4.90;;
41167;SDS011;26906;45.658;9.272;2023-08-01T17:44:00;9.15;;;5.78;;
41167;SDS011;26906;45.658;9.272;2023-08-01T17:46:26;13.13;;;5.82;;
41167;SDS011;26906;45.658;9.272;2023-08-01T17:48:52;8.00;;;5.40;;
41167;SDS011;26906;45.658;9.272;2023-08-01T17:51:19;9.85;;;5.60;;
41167;SDS011;26906;45.658;9.272;2023-08-01T17:53:47;6.78;;;5.30;;
41167;SDS011;26906;45.658;9.272;2023-08-01T17:56:13;9.35;;;5.55;;
41167;SDS011;26906;45.658;9.272;2023-08-01T17:58:40;8.27;;;6.05;;
41167;SDS011;26906;45.658;9.272;2023-08-01T18:01:06;7.22;;;5.55;;
41167;SDS011;26906;45.658;9.272;2023-08-01T18:03:32;7.90;;;4.97;;
41167;SDS011;26906;45.658;9.272;2023-08-01T18:06:10;13.40;;;5.55;;
41167;SDS011;26906;45.658;9.272;2023-08-01T18:08:37;9.40;;;5.40;;
41167;SDS011;26906;45.658;9.272;2023-08-01T18:11:13;8.10;;;5.72;;
41167;SDS011;26906;45.658;9.272;2023-08-01T18:13:41;8.35;;;5.22;;
41167;SDS011;26906;45.658;9.272;2023-08-01T18:16:22;7.88;;;5.47;;
41167;SDS011;26906;45.658;9.272;2023-08-01T18:19:03;7.90;;;5.50;;
41167;SDS011;26906;45.658;9.272;2023-08-01T18:21:31;9.18;;;5.43;;
41167;SDS011;26906;45.658;9.272;2023-08-01T18:23:56;7.40;;;5.25;;
41167;SDS011;26906;45.658;9.272;2023-08-01T18:26:23;8.50;;;5.40;;
41167;SDS011;26906;45.658;9.272;2023-08-01T18:28:50;6.82;;;5.40;;
41167;SDS011;26906;45.658;9.272;2023-08-01T18:31:19;6.80;;;5.60;;
41167;SDS011;26906;45.658;9.272;2023-08-01T18:33:46;9.27;;;5.28;;
41167;SDS011;26906;45.658;9.272;2023-08-01T18:36:14;8.35;;;6.00;;
41167;SDS011;26906;45.658;9.272;2023-08-01T18:38:41;10.15;;;5.28;;
41167;SDS011;26906;45.658;9.272;2023-08-01T18:41:09;6.43;;;5.30;;
41167;SDS011;26906;45.658;9.272;2023-08-01T18:43:35;9.13;;;5.63;;
41167;SDS011;26906;45.658;9.272;2023-08-01T18:46:02;8.27;;;5.88;;
41167;SDS011;26906;45.658;9.272;2023-08-01T18:48:28;9.68;;;6.05;;
41167;SDS011;26906;45.658;9.272;2023-08-01T18:50:54;10.32;;;5.82;;
41167;SDS011;26906;45.658;9.272;2023-08-01T18:53:21;9.65;;;6.68;;
41167;SDS011;26906;45.658;9.272;2023-08-01T18:55:47;7.72;;;5.95;;
41167;SDS011;26906;45.658;9.272;2023-08-01T18:58:12;7.78;;;5.75;;
41167;SDS011;26906;45.658;9.272;2023-08-01T19:00:38;8.18;;;6.03;;
41167;SDS011;26906;45.658;9.272;2023-08-01T19:03:04;9.43;;;6.28;;
41167;SDS011;26906;45.658;9.272;2023-08-01T19:05:30;7.13;;;5.70;;
41167;SDS011;26906;45.658;9.272;2023-08-01T19:07:56;11.70;;;7.35;;
41167;SDS011;26906;45.658;9.272;2023-08-01T19:10:23;11.82;;;8.43;;
41167;SDS011;26906;45.658;9.272;2023-08-01T19:12:49;8.65;;;6.68;;
41167;SDS011;26906;45.658;9.272;2023-08-01T19:15:16;12.88;;;6.10;;
41167;SDS011;26906;45.658;9.272;2023-08-01T19:17:42;13.13;;;6.53;;
41167;SDS011;26906;45.658;9.272;2023-08-01T19:20:08;7.80;;;6.10;;
41167;SDS011;26906;45.658;9.272;2023-08-01T19:22:35;9.32;;;6.55;;
41167;SDS011;26906;45.658;9.272;2023-08-01T19:25:01;9.65;;;6.65;;
41167;SDS011;26906;45.658;9.272;2023-08-01T19:27:28;7.88;;;6.93;;
41167;SDS011;26906;45.658;9.272;2023-08-01T19:29:55;9.52;;;7.47;;
41167;SDS011;26906;45.658;9.272;2023-08-01T19:32:24;8.60;;;6.32;;
41167;SDS011;26906;45.658;9.272;2023-08-01T19:34:50;8.85;;;6.75;;
41167;SDS011;26906;45.658;9.272;2023-08-01T19:37:17;10.32;;;6.82;;
41167;SDS011;26906;45.658;9.272;2023-08-01T19:39:43;9.68;;;6.30;;
41167;SDS011;26906;45.658;9.272;2023-08-01T19:42:09;12.02;;;7.47;;
41167;SDS011;26906;45.658;9.272;2023-08-01T19:44:35;7.90;;;6.20;;
41167;SDS011;26906;45.658;9.272;2023-08-01T19:47:01;8.02;;;6.25;;
41167;SDS011;26906;45.658;9.272;2023-08-01T19:49:28;9.45;;;6.28;;
41167;SDS011;26906;45.658;9.272;2023-08-01T19:51:55;7.80;;;6.28;;
41167;SDS011;26906;45.658;9.272;2023-08-01T19:54:22;8.48;;;6.35;;
41167;SDS011;26906;45.658;9.272;2023-08-01T19:56:47;7.10;;;6.40;;
41167;SDS011;26906;45.658;9.272;2023-08-01T19:59:14;11.75;;;7.03;;
41167;SDS011;26906;45.658;9.272;2023-08-01T20:01:40;11.40;;;7.00;;
41167;SDS011;26906;45.658;9.272;2023-08-01T20:04:07;10.02;;;6.70;;
41167;SDS011;26906;45.658;9.272;2023-08-01T20:06:34;7.53;;;6.63;;
41167;SDS011;26906;45.658;9.272;2023-08-01T20:09:00;9.98;;;7.03;;
41167;SDS011;26906;45.658;9.272;2023-08-01T20:11:26;10.10;;;7.32;;
41167;SDS011;26906;45.658;9.272;2023-08-01T20:13:51;10.60;;;7.72;;
41167;SDS011;26906;45.658;9.272;2023-08-01T20:16:17;10.23;;;6.80;;
41167;SDS011;26906;45.658;9.272;2023-08-01T20:18:46;8.40;;;6.57;;
41167;SDS011;26906;45.658;9.272;2023-08-01T20:21:19;10.65;;;7.30;;
41167;SDS011;26906;45.658;9.272;2023-08-01T20:23:45;10.43;;;6.93;;
41167;SDS011;26906;45.658;9.272;2023-08-01T20:26:10;7.47;;;6.65;;